Time;durP1;ratioP1;P1;durP2;ratioP2;P2;SDS_P1;SDS_P2;PMS_P1;PMS_P2;Temp;Humidity;BMP_temperature;BMP_pressure;BME280_temperature;BME280_humidity;BME280_pressure;Samples;Min_cycle;Max_cycle;Signal;HPM_P1;HPM_P2
2021/04/11 00:01:30;;;;;;;7.82;2.97;;;;;;;;;;5094914;28;20035;-68
2021/04/11 00:03:56;;;;;;;6.68;2.88;;;;;;;;;;5094238;28;20024;-68
2021/04/11 00:06:22;;;;;;;11.27;4.07;;;;;;;;;;5095549;28;20467;-67
2021/04/11 00:08:48;;;;;;;11.38;3.83;;;;;;;;;;5095034;28;20028;-67
2021/04/11 00:11:15;;;;;;;7.10;2.50;;;;;;;;;;5095240;28;20479;-67
2021/04/11 00:13:41;;;;;;;6.95;3.00;;;;;;;;;;5095208;28;20079;-67
2021/04/11 00:16:07;;;;;;;5.47;2.55;;;;;;;;;;5094804;28;20028;-67
2021/04/11 00:18:34;;;;;;;6.85;2.60;;;;;;;;;;5095135;28;20035;-67
2021/04/11 00:21:03;;;;;;;7.28;2.85;;;;;;;;;;5093711;28;20026;-67
2021/04/11 00:23:30;;;;;;;7.80;3.22;;;;;;;;;;5094668;28;20027;-67
2021/04/11 00:25:56;;;;;;;11.70;4.43;;;;;;;;;;5095209;28;20016;-68
2021/04/11 00:28:22;;;;;;;11.23;4.80;;;;;;;;;;5093758;28;20020;-67
2021/04/11 00:30:49;;;;;;;12.88;5.60;;;;;;;;;;5094480;28;20099;-67
2021/04/11 00:33:43;;;;;;;13.40;4.45;;;;;;;;;;5093540;28;20521;-67
2021/04/11 00:36:11;;;;;;;8.50;3.92;;;;;;;;;;5090522;28;20043;-67
2021/04/11 00:38:37;;;;;;;9.82;4.25;;;;;;;;;;5094792;28;20024;-67
2021/04/11 00:41:15;;;;;;;9.85;3.90;;;;;;;;;;5094357;28;20050;-67
2021/04/11 00:43:42;;;;;;;8.52;4.32;;;;;;;;;;5094311;28;20024;-67
2021/04/11 00:46:15;;;;;;;8.40;5.28;;;;;;;;;;5094822;28;20028;-67
2021/04/11 00:48:41;;;;;;;5.90;2.88;;;;;;;;;;5094606;28;20021;-67
2021/04/11 00:51:10;;;;;;;6.57;2.55;;;;;;;;;;5094012;28;20028;-67
2021/04/11 00:53:36;;;;;;;6.03;2.95;;;;;;;;;;5094490;28;20043;-67
2021/04/11 00:56:04;;;;;;;8.02;2.67;;;;;;;;;;5094425;28;20020;-68
2021/04/11 00:58:31;;;;;;;5.97;3.10;;;;;;;;;;5093885;28;20100;-68
2021/04/11 01:00:58;;;;;;;9.70;3.92;;;;;;;;;;5094183;28;20563;-67
2021/04/11 01:03:25;;;;;;;6.57;2.90;;;;;;;;;;5094154;28;20434;-67
2021/04/11 01:05:51;;;;;;;4.97;2.85;;;;;;;;;;5093979;28;20020;-67
2021/04/11 01:08:19;;;;;;;6.05;2.88;;;;;;;;;;5094330;28;20032;-67
2021/04/11 01:10:48;;;;;;;7.07;2.80;;;;;;;;;;5094078;28;20095;-67
2021/04/11 01:13:15;;;;;;;6.63;2.95;;;;;;;;;;5092780;28;20032;-67
2021/04/11 01:15:42;;;;;;;7.32;3.22;;;;;;;;;;5094074;28;20024;-67
2021/04/11 01:18:08;;;;;;;7.78;3.58;;;;;;;;;;5093494;28;20503;-67
2021/04/11 01:20:35;;;;;;;6.25;2.50;;;;;;;;;;5093922;28;20027;-67
2021/04/11 01:23:07;;;;;;;5.35;2.58;;;;;;;;;;5093782;28;20039;-67
2021/04/11 01:25:34;;;;;;;6.22;2.97;;;;;;;;;;5092368;28;20024;-67
2021/04/11 01:28:02;;;;;;;6.40;2.78;;;;;;;;;;5093897;28;20016;-67
2021/04/11 01:30:30;;;;;;;5.07;2.70;;;;;;;;;;5093648;28;20028;-67
2021/04/11 01:32:57;;;;;;;9.43;3.10;;;;;;;;;;5093232;28;20031;-67
2021/04/11 01:35:24;;;;;;;5.63;2.85;;;;;;;;;;5093596;28;20095;-67
2021/04/11 01:37:51;;;;;;;6.15;2.95;;;;;;;;;;5092299;28;20024;-68
2021/04/11 01:40:19;;;;;;;4.95;2.65;;;;;;;;;;5093114;28;20089;-67
2021/04/11 01:42:45;;;;;;;7.20;3.00;;;;;;;;;;5092016;28;20450;-67
2021/04/11 01:45:13;;;;;;;6.90;2.75;;;;;;;;;;5093551;28;20380;-67
2021/04/11 01:47:40;;;;;;;8.30;3.28;;;;;;;;;;5093213;28;20024;-67
2021/04/11 01:50:08;;;;;;;7.10;3.88;;;;;;;;;;5092043;28;20506;-67
2021/04/11 01:52:36;;;;;;;9.13;3.97;;;;;;;;;;5092823;28;20058;-67
2021/04/11 01:55:02;;;;;;;11.10;3.53;;;;;;;;;;5092798;28;20051;-67
2021/04/11 01:57:32;;;;;;;6.38;3.03;;;;;;;;;;5093300;28;20117;-67
2021/04/11 02:00:00;;;;;;;8.48;2.90;;;;;;;;;;5093235;28;20017;-67
2021/04/11 02:02:26;;;;;;;6.05;2.60;;;;;;;;;;5092696;28;20032;-67
2021/04/11 02:04:52;;;;;;;8.27;4.18;;;;;;;;;;5093095;28;20111;-67
2021/04/11 02:07:19;;;;;;;8.73;3.67;;;;;;;;;;5092856;28;20024;-67
2021/04/11 02:09:46;;;;;;;10.77;3.70;;;;;;;;;;5093136;28;20027;-67
2021/04/11 02:12:14;;;;;;;7.03;3.70;;;;;;;;;;5092995;28;20026;-67
2021/04/11 02:14:41;;;;;;;10.75;3.70;;;;;;;;;;5091237;28;20495;-67
2021/04/11 02:17:07;;;;;;;8.77;3.97;;;;;;;;;;5092937;28;20028;-67
2021/04/11 02:19:33;;;;;;;11.35;4.28;;;;;;;;;;5093486;28;20035;-67
2021/04/11 02:22:14;;;;;;;11.88;3.88;;;;;;;;;;5092372;28;20032;-67
2021/04/11 02:24:42;;;;;;;10.95;5.07;;;;;;;;;;5092672;28;20024;-67
2021/04/11 02:27:08;;;;;;;11.98;5.25;;;;;;;;;;5091588;28;20020;-67
2021/04/11 02:29:35;;;;;;;13.75;5.70;;;;;;;;;;5091198;28;20016;-67
2021/04/11 02:32:01;;;;;;;9.30;5.00;;;;;;;;;;5091382;28;20024;-67
2021/04/11 02:34:29;;;;;;;7.85;3.90;;;;;;;;;;5092679;28;20499;-67
2021/04/11 02:36:57;;;;;;;9.88;3.60;;;;;;;;;;5092176;28;20539;-67
2021/04/11 02:39:28;;;;;;;8.07;4.05;;;;;;;;;;5091255;28;20020;-67
2021/04/11 02:41:54;;;;;;;7.35;3.63;;;;;;;;;;5092413;28;20121;-67
2021/04/11 02:44:21;;;;;;;10.20;4.10;;;;;;;;;;5090933;28;20314;-67
2021/04/11 02:46:47;;;;;;;10.23;5.05;;;;;;;;;;5092688;28;20103;-67
2021/04/11 02:49:15;;;;;;;9.45;4.70;;;;;;;;;;5092722;28;20074;-67
2021/04/11 02:51:41;;;;;;;9.52;4.28;;;;;;;;;;5092460;28;20024;-67
2021/04/11 02:54:09;;;;;;;7.68;4.43;;;;;;;;;;5092390;28;20023;-67
2021/04/11 02:56:38;;;;;;;8.50;3.97;;;;;;;;;;5092036;28;20052;-67
2021/04/11 02:59:04;;;;;;;9.38;4.43;;;;;;;;;;5092304;28;20020;-67
2021/04/11 03:01:34;;;;;;;9.07;3.08;;;;;;;;;;5092315;28;20025;-67
2021/04/11 03:04:01;;;;;;;7.45;3.67;;;;;;;;;;5093931;28;20020;-67
2021/04/11 03:06:29;;;;;;;6.47;3.63;;;;;;;;;;5096519;28;20476;-67
2021/04/11 03:08:56;;;;;;;6.40;3.10;;;;;;;;;;5096661;28;20028;-67
2021/04/11 03:11:38;;;;;;;6.32;3.30;;;;;;;;;;5095979;28;20016;-67
2021/04/11 03:14:05;;;;;;;6.22;2.97;;;;;;;;;;5096301;28;20027;-67
2021/04/11 03:16:36;;;;;;;8.30;3.00;;;;;;;;;;5094743;28;20553;-67
2021/04/11 03:19:02;;;;;;;5.65;2.90;;;;;;;;;;5095798;28;20421;-67
2021/04/11 03:21:29;;;;;;;7.85;3.58;;;;;;;;;;5096074;28;20020;-67
2021/04/11 03:23:55;;;;;;;9.23;3.45;;;;;;;;;;5096408;28;20418;-67
2021/04/11 03:26:37;;;;;;;14.23;4.05;;;;;;;;;;5094543;28;20020;-68
2021/04/11 03:29:16;;;;;;;8.00;4.05;;;;;;;;;;5096204;28;20032;-67
2021/04/11 03:31:45;;;;;;;6.72;3.33;;;;;;;;;;5095597;28;20026;-68
2021/04/11 03:34:12;;;;;;;9.13;4.30;;;;;;;;;;5095881;28;20331;-67
2021/04/11 03:36:40;;;;;;;11.50;5.32;;;;;;;;;;5094496;28;20468;-67
2021/04/11 03:39:08;;;;;;;8.63;4.40;;;;;;;;;;5094117;28;20355;-67
2021/04/11 03:41:36;;;;;;;14.63;6.47;;;;;;;;;;5095634;28;20058;-68
2021/04/11 03:44:06;;;;;;;8.75;4.55;;;;;;;;;;5095799;28;20024;-67
2021/04/11 03:46:39;;;;;;;7.82;3.90;;;;;;;;;;5094082;28;20530;-67
2021/04/11 03:49:05;;;;;;;8.88;3.95;;;;;;;;;;5095846;28;20138;-67
2021/04/11 03:51:33;;;;;;;14.25;5.57;;;;;;;;;;5095670;28;20024;-67
2021/04/11 03:54:02;;;;;;;13.43;5.80;;;;;;;;;;5095117;28;20035;-67
2021/04/11 03:56:32;;;;;;;11.13;4.97;;;;;;;;;;5094141;28;20024;-67
2021/04/11 03:59:00;;;;;;;10.07;4.28;;;;;;;;;;5095663;28;20026;-67
2021/04/11 04:01:28;;;;;;;9.63;3.97;;;;;;;;;;5094945;28;20012;-67
2021/04/11 04:04:00;;;;;;;9.63;4.45;;;;;;;;;;5095371;28;20027;-67
2021/04/11 04:06:29;;;;;;;12.52;4.35;;;;;;;;;;5094173;28;20024;-67
2021/04/11 04:08:55;;;;;;;8.98;4.05;;;;;;;;;;5095206;28;20251;-67
2021/04/11 04:11:30;;;;;;;8.25;3.58;;;;;;;;;;5095209;28;20024;-67
2021/04/11 04:14:04;;;;;;;7.20;3.47;;;;;;;;;;5094329;28;20403;-67
2021/04/11 04:16:39;;;;;;;9.85;4.00;;;;;;;;;;5095148;28;20046;-67
2021/04/11 04:19:16;;;;;;;11.00;5.10;;;;;;;;;;5095094;28;20020;-67
2021/04/11 04:21:51;;;;;;;7.25;3.55;;;;;;;;;;5094669;28;20020;-67
2021/04/11 04:24:19;;;;;;;9.48;5.35;;;;;;;;;;5095021;28;20036;-67
2021/04/11 04:27:04;;;;;;;14.15;4.95;;;;;;;;;;5094915;28;20027;-67
2021/04/11 04:29:36;;;;;;;11.35;4.70;;;;;;;;;;5094741;28;20029;-67
2021/04/11 04:32:08;;;;;;;9.23;4.03;;;;;;;;;;5093582;28;20039;-67
2021/04/11 04:34:50;;;;;;;7.43;3.90;;;;;;;;;;5094889;28;20494;-67
2021/04/11 04:37:19;;;;;;;7.10;3.55;;;;;;;;;;5094753;28;20031;-67
2021/04/11 04:39:51;;;;;;;9.85;3.83;;;;;;;;;;5094648;28;20349;-67
2021/04/11 04:42:26;;;;;;;18.75;6.65;;;;;;;;;;5094109;28;20550;-67
2021/04/11 04:44:52;;;;;;;13.00;5.65;;;;;;;;;;5094702;28;20047;-67
2021/04/11 04:47:28;;;;;;;11.27;5.45;;;;;;;;;;5093327;28;20174;-67
2021/04/11 04:49:59;;;;;;;10.65;5.95;;;;;;;;;;5094657;28;20384;-67
2021/04/11 04:52:27;;;;;;;14.80;6.30;;;;;;;;;;5093222;28;20446;-67
2021/04/11 04:55:02;;;;;;;18.85;6.55;;;;;;;;;;5094445;28;20050;-67
2021/04/11 04:57:34;;;;;;;10.15;6.05;;;;;;;;;;5093827;28;20091;-67
2021/04/11 05:00:00;;;;;;;16.05;7.90;;;;;;;;;;5094286;28;20547;-67
2021/04/11 05:02:28;;;;;;;14.48;5.25;;;;;;;;;;5094125;28;20518;-67
2021/04/11 05:04:57;;;;;;;7.25;3.75;;;;;;;;;;5093704;28;20023;-67
2021/04/11 05:07:26;;;;;;;8.52;4.25;;;;;;;;;;5094103;28;20073;-67
2021/04/11 05:09:58;;;;;;;10.40;4.35;;;;;;;;;;5092917;28;20027;-67
2021/04/11 05:12:27;;;;;;;9.68;4.45;;;;;;;;;;5094479;28;20020;-67
2021/04/11 05:14:59;;;;;;;12.18;5.22;;;;;;;;;;5094020;28;20100;-67
2021/04/11 05:17:29;;;;;;;11.32;6.18;;;;;;;;;;5093683;28;20024;-67
2021/04/11 05:20:07;;;;;;;12.35;6.55;;;;;;;;;;5093946;28;20031;-67
2021/04/11 05:22:36;;;;;;;14.70;5.05;;;;;;;;;;5093752;28;20488;-67
2021/04/11 05:25:23;;;;;;;12.07;5.90;;;;;;;;;;5093357;28;20431;-67
2021/04/11 05:28:08;;;;;;;13.68;6.57;;;;;;;;;;5093262;28;20024;-67
2021/04/11 05:30:34;;;;;;;14.95;6.28;;;;;;;;;;5094019;28;20472;-67
2021/04/11 05:33:01;;;;;;;13.20;5.78;;;;;;;;;;5093227;28;20721;-67
2021/04/11 05:35:29;;;;;;;17.38;6.95;;;;;;;;;;5093565;28;20032;-67
2021/04/11 05:37:58;;;;;;;11.27;5.72;;;;;;;;;;5093474;28;20024;-67
2021/04/11 05:40:35;;;;;;;8.88;5.25;;;;;;;;;;5093003;28;20020;-67
2021/04/11 05:43:04;;;;;;;13.40;7.10;;;;;;;;;;5093190;28;20040;-67
2021/04/11 05:45:32;;;;;;;12.52;6.80;;;;;;;;;;5091527;28;20031;-67
2021/04/11 05:48:02;;;;;;;12.20;5.45;;;;;;;;;;5092093;28;20035;-67
2021/04/11 05:50:37;;;;;;;11.68;6.38;;;;;;;;;;5093450;28;20024;-67
2021/04/11 05:53:22;;;;;;;13.35;6.18;;;;;;;;;;5091659;28;20016;-67
2021/04/11 05:55:57;;;;;;;14.57;6.03;;;;;;;;;;5093215;28;20026;-67
2021/04/11 05:58:25;;;;;;;9.18;4.55;;;;;;;;;;5093680;28;20012;-67
2021/04/11 06:00:53;;;;;;;7.97;3.80;;;;;;;;;;5092622;28;20189;-67
2021/04/11 06:03:20;;;;;;;6.95;2.85;;;;;;;;;;5093008;28;20047;-67
2021/04/11 06:06:05;;;;;;;6.05;3.00;;;;;;;;;;5092992;28;20028;-67
2021/04/11 06:08:45;;;;;;;5.00;2.85;;;;;;;;;;5092590;28;20426;-67
2021/04/11 06:11:15;;;;;;;5.72;2.95;;;;;;;;;;5093183;28;20081;-67
2021/04/11 06:13:48;;;;;;;4.70;1.80;;;;;;;;;;5092515;28;20051;-67
2021/04/11 06:16:14;;;;;;;;;;;;;;;;;;5093293;28;20098;-67
2021/04/11 06:18:45;;;;;;;3.42;2.15;;;;;;;;;;5092757;28;19980;-67
2021/04/11 06:21:15;;;;;;;6.38;2.80;;;;;;;;;;5091136;28;20499;-67
2021/04/11 06:23:45;;;;;;;7.35;4.25;;;;;;;;;;5092519;28;20062;-67
2021/04/11 06:26:35;;;;;;;20.30;10.98;;;;;;;;;;5092647;28;20020;-67
2021/04/11 06:29:01;;;;;;;15.30;8.45;;;;;;;;;;5092424;28;20476;-67
2021/04/11 06:31:29;;;;;;;25.98;15.20;;;;;;;;;;5092852;28;20028;-68
2021/04/11 06:33:57;;;;;;;32.63;17.70;;;;;;;;;;5092613;28;20039;-67
2021/04/11 06:36:50;;;;;;;13.50;7.88;;;;;;;;;;5090935;28;20028;-67
2021/04/11 06:39:21;;;;;;;12.82;7.82;;;;;;;;;;5089686;28;20032;-67
2021/04/11 06:42:00;;;;;;;33.25;18.25;;;;;;;;;;5091653;28;20044;-67
2021/04/11 06:44:44;;;;;;;106.38;45.55;;;;;;;;;;5092420;28;20538;-67
2021/04/11 06:47:19;;;;;;;23.90;11.52;;;;;;;;;;5092406;28;20069;-67
2021/04/11 06:49:52;;;;;;;33.13;13.68;;;;;;;;;;5092149;28;20384;-67
2021/04/11 06:52:33;;;;;;;24.10;11.10;;;;;;;;;;5092548;28;20416;-66
2021/04/11 06:54:59;;;;;;;18.98;8.25;;;;;;;;;;5090956;28;20541;-67
2021/04/11 06:57:51;;;;;;;17.48;7.50;;;;;;;;;;5091878;28;20036;-67
2021/04/11 07:00:30;;;;;;;13.43;5.90;;;;;;;;;;5092289;28;20468;-67
2021/04/11 07:03:14;;;;;;;14.80;6.25;;;;;;;;;;5090598;28;20138;-68
2021/04/11 07:05:41;;;;;;;14.43;5.50;;;;;;;;;;5092139;28;20024;-67
2021/04/11 07:08:21;;;;;;;17.25;7.70;;;;;;;;;;5092404;28;20107;-67
2021/04/11 07:11:00;;;;;;;13.43;4.82;;;;;;;;;;5092023;28;20024;-67
2021/04/11 07:13:36;;;;;;;6.88;3.38;;;;;;;;;;5090928;28;20027;-67
2021/04/11 07:16:28;;;;;;;13.63;6.03;;;;;;;;;;5092181;28;20054;-67
2021/04/11 07:19:09;;;;;;;7.50;3.72;;;;;;;;;;5068173;28;20032;-67
2021/04/11 07:21:54;;;;;;;10.65;4.40;;;;;;;;;;5092068;28;20480;-68
2021/04/11 07:24:39;;;;;;;8.20;4.00;;;;;;;;;;5091759;28;20484;-67
2021/04/11 07:27:24;;;;;;;5.75;3.22;;;;;;;;;;5092017;28;20028;-67
2021/04/11 07:29:55;;;;;;;8.38;3.90;;;;;;;;;;5092311;28;20158;-67
2021/04/11 07:32:26;;;;;;;12.65;3.63;;;;;;;;;;5091815;28;20031;-67
2021/04/11 07:35:08;;;;;;;7.93;4.00;;;;;;;;;;5092094;28;20020;-67
2021/04/11 07:37:43;;;;;;;5.90;3.20;;;;;;;;;;5092075;28;20415;-67
2021/04/11 07:40:28;;;;;;;10.68;4.18;;;;;;;;;;5091922;28;20024;-68
2021/04/11 07:43:18;;;;;;;5.38;2.53;;;;;;;;;;5091656;28;20150;-67
2021/04/11 07:45:51;;;;;;;6.03;2.47;;;;;;;;;;5091651;28;20025;-67
2021/04/11 07:48:27;;;;;;;7.70;3.30;;;;;;;;;;5090733;28;20066;-67
2021/04/11 07:50:53;;;;;;;7.88;3.65;;;;;;;;;;5094997;28;20024;-67
2021/04/11 07:53:37;;;;;;;10.00;4.55;;;;;;;;;;5095161;28;20103;-67
2021/04/11 07:56:14;;;;;;;12.35;5.07;;;;;;;;;;5095277;28;20024;-67
2021/04/11 07:58:50;;;;;;;5.85;2.70;;;;;;;;;;5095459;28;20028;-67
2021/04/11 08:01:35;;;;;;;7.05;2.40;;;;;;;;;;5095393;28;20020;-67
2021/04/11 08:04:19;;;;;;;7.93;2.75;;;;;;;;;;5095238;28;20032;-67
2021/04/11 08:06:58;;;;;;;9.57;3.35;;;;;;;;;;5094898;28;20471;-67
2021/04/11 08:09:40;;;;;;;5.78;2.47;;;;;;;;;;5095511;28;20411;-67
2021/04/11 08:12:53;;;;;;;5.28;2.55;;;;;;;;;;5110318;27;20380;-67
2021/04/11 08:15:19;;;;;;;24.65;9.95;;;;;;;;;;5108556;28;20110;-67
2021/04/11 08:18:02;;;;;;;6.60;2.60;;;;;;;;;;5109002;28;20028;-67
2021/04/11 08:20:47;;;;;;;5.13;2.40;;;;;;;;;;5109803;28;20023;-67
2021/04/11 08:23:19;;;;;;;14.30;5.25;;;;;;;;;;5110209;28;20130;-67
2021/04/11 08:26:30;;;;;;;9.55;4.60;;;;;;;;;;5110433;27;20418;-67
2021/04/11 08:29:11;;;;;;;15.93;7.55;;;;;;;;;;5110144;28;20038;-67
2021/04/11 08:31:38;;;;;;;18.30;7.45;;;;;;;;;;5108987;28;20023;-68
2021/04/11 08:34:07;;;;;;;19.42;8.85;;;;;;;;;;5110109;28;20018;-67
2021/04/11 08:38:30;;;;;;;10.07;4.20;;;;;;;;;;5110223;27;20726;-67
2021/04/11 08:41:15;;;;;;;9.52;3.53;;;;;;;;;;5079261;28;20040;-67
2021/04/11 08:43:47;;;;;;;8.82;3.15;;;;;;;;;;5108868;28;20020;-67
2021/04/11 08:46:25;;;;;;;4.95;2.03;;;;;;;;;;5110193;28;20032;-67
2021/04/11 08:49:11;;;;;;;6.57;3.38;;;;;;;;;;5109997;28;20027;-67
2021/04/11 08:51:56;;;;;;;4.68;1.80;;;;;;;;;;5110092;28;20024;-67
2021/04/11 08:54:27;;;;;;;5.20;2.20;;;;;;;;;;5108598;28;20031;-67
2021/04/11 08:56:53;;;;;;;11.02;4.47;;;;;;;;;;5109473;28;20076;-68
2021/04/11 09:03:25;;;;;;;7.78;4.10;;;;;;;;;;5109833;27;20430;-66
2021/04/11 09:06:03;;;;;;;4.75;2.30;;;;;;;;;;5110235;28;20038;-66
2021/04/11 09:08:37;;;;;;;8.65;4.13;;;;;;;;;;5110533;28;20028;-66
2021/04/11 09:11:16;;;;;;;7.80;3.97;;;;;;;;;;5109810;28;20032;-66
2021/04/11 09:13:55;;;;;;;9.13;4.43;;;;;;;;;;5110168;28;20110;-66
2021/04/11 09:16:21;;;;;;;9.20;4.40;;;;;;;;;;5109731;28;20019;-66
2021/04/11 09:20:38;;;;;;;12.15;2.88;;;;;;;;;;5069758;28;20387;-67
2021/04/11 09:23:33;;;;;;;7.30;3.70;;;;;;;;;;5069861;28;20083;-66
2021/04/11 09:28:57;;;;;;;4.70;1.88;;;;;;;;;;5069802;28;20396;-67
2021/04/11 09:31:31;;;;;;;3.33;1.52;;;;;;;;;;5069320;28;20108;-67
2021/04/11 09:34:07;;;;;;;9.75;4.45;;;;;;;;;;5069649;28;20096;-68
2021/04/11 09:37:44;;;;;;;5.22;2.20;;;;;;;;;;5110597;27;20392;-67
2021/04/11 09:41:46;;;;;;;7.25;2.60;;;;;;;;;;5110272;27;20752;-67
2021/04/11 09:44:24;;;;;;;20.02;10.77;;;;;;;;;;5109052;28;20051;-67
2021/04/11 09:46:53;;;;;;;9.48;4.63;;;;;;;;;;5110392;28;20024;-67
2021/04/11 09:49:25;;;;;;;11.13;5.85;;;;;;;;;;5109097;28;20058;-67
2021/04/11 09:52:44;;;;;;;12.98;6.70;;;;;;;;;;5109868;27;20384;-67
2021/04/11 09:57:08;;;;;;;6.00;2.90;;;;;;;;;;5110262;27;20430;-67
2021/04/11 09:59:43;;;;;;;15.80;8.20;;;;;;;;;;5109877;28;20024;-67
2021/04/11 10:02:20;;;;;;;4.80;2.58;;;;;;;;;;5110245;28;20024;-67
2021/04/11 10:05:02;;;;;;;12.52;6.45;;;;;;;;;;5110233;28;20488;-67
2021/04/11 10:07:31;;;;;;;13.65;7.38;;;;;;;;;;5109907;28;20476;-67
2021/04/11 10:10:23;;;;;;;17.45;8.57;;;;;;;;;;5110175;28;20549;-67
2021/04/11 10:12:55;;;;;;;10.73;4.22;;;;;;;;;;5109616;28;20016;-67
2021/04/11 10:15:44;;;;;;;9.73;3.67;;;;;;;;;;5109811;28;20036;-67
2021/04/11 10:18:24;;;;;;;7.43;2.70;;;;;;;;;;5108236;28;20479;-68
2021/04/11 10:20:54;;;;;;;6.15;2.70;;;;;;;;;;5108186;28;20084;-67
2021/04/11 10:23:39;;;;;;;3.45;2.15;;;;;;;;;;5108461;28;20019;-68
2021/04/11 10:26:09;;;;;;;6.50;3.70;;;;;;;;;;5109636;28;20024;-68
2021/04/11 10:28:35;;;;;;;3.85;2.60;;;;;;;;;;5109515;28;20030;-68
2021/04/11 10:31:10;;;;;;;5.25;2.50;;;;;;;;;;5109738;28;20111;-68
2021/04/11 10:33:45;;;;;;;8.52;3.55;;;;;;;;;;5109171;28;20015;-68
2021/04/11 10:36:18;;;;;;;7.15;2.55;;;;;;;;;;5108189;28;20138;-68
2021/04/11 10:39:05;;;;;;;6.25;2.97;;;;;;;;;;5109461;28;20529;-67
2021/04/11 10:41:48;;;;;;;12.50;7.25;;;;;;;;;;5109001;28;20038;-67
2021/04/11 10:45:46;;;;;;;13.13;6.88;;;;;;;;;;5110241;27;20407;-66
2021/04/11 10:48:30;;;;;;;4.72;2.38;;;;;;;;;;5110012;28;20031;-66
2021/04/11 10:51:11;;;;;;;4.93;2.45;;;;;;;;;;5110413;28;20084;-67
2021/04/11 10:53:38;;;;;;;8.20;3.65;;;;;;;;;;5110265;28;20019;-66
2021/04/11 10:56:08;;;;;;;13.32;7.05;;;;;;;;;;5109625;28;20365;-66
2021/04/11 10:58:34;;;;;;;5.57;2.55;;;;;;;;;;5110101;28;20259;-66
2021/04/11 11:01:19;;;;;;;5.75;2.33;;;;;;;;;;5110077;28;20024;-67
2021/04/11 11:03:45;;;;;;;7.72;2.88;;;;;;;;;;5109372;28;20024;-66
2021/04/11 11:06:20;;;;;;;7.68;3.70;;;;;;;;;;5109946;28;20020;-67
2021/04/11 11:08:52;;;;;;;8.25;3.40;;;;;;;;;;5109625;28;20031;-66
2021/04/11 11:13:25;;;;;;;7.47;2.72;;;;;;;;;;5110345;27;20384;-67
2021/04/11 11:16:04;;;;;;;7.75;3.53;;;;;;;;;;5109920;28;20146;-67
2021/04/11 11:18:45;;;;;;;6.38;2.70;;;;;;;;;;5110111;28;20103;-66
2021/04/11 11:21:26;;;;;;;7.47;1.73;;;;;;;;;;5110112;28;20316;-67
2021/04/11 11:23:52;;;;;;;9.75;5.90;;;;;;;;;;5109781;28;20411;-67
2021/04/11 11:26:41;;;;;;;5.20;2.55;;;;;;;;;;5110142;28;20373;-67
2021/04/11 11:29:25;;;;;;;2.80;1.65;;;;;;;;;;5108950;28;20365;-67
2021/04/11 11:32:01;;;;;;;3.55;1.75;;;;;;;;;;5109637;28;20032;-67
2021/04/11 11:34:40;;;;;;;4.50;1.90;;;;;;;;;;5109942;28;20039;-67
2021/04/11 11:37:32;;;;;;;4.32;1.65;;;;;;;;;;5109782;28;20058;-67
2021/04/11 11:40:01;;;;;;;4.15;1.75;;;;;;;;;;5102598;28;20058;-66
2021/04/11 11:42:39;;;;;;;4.15;2.00;;;;;;;;;;5108460;28;20106;-67
2021/04/11 11:45:09;;;;;;;5.57;2.15;;;;;;;;;;5109322;28;20023;-66
2021/04/11 11:47:54;;;;;;;4.50;1.70;;;;;;;;;;5108796;28;20440;-67
2021/04/11 11:50:24;;;;;;;4.18;2.15;;;;;;;;;;5109855;28;20441;-67
2021/04/11 11:52:53;;;;;;;3.63;1.63;;;;;;;;;;5109206;28;20392;-67
2021/04/11 11:55:21;;;;;;;4.95;2.00;;;;;;;;;;5109560;28;20022;-67
2021/04/11 11:57:48;;;;;;;4.70;1.70;;;;;;;;;;5108212;28;20179;-67
2021/04/11 12:00:49;;;;;;;4.80;1.98;;;;;;;;;;5109173;28;20020;-67
2021/04/11 12:03:18;;;;;;;2.80;1.48;;;;;;;;;;5046582;28;20025;-67
2021/04/11 12:05:47;;;;;;;7.00;1.50;;;;;;;;;;5097589;28;20040;-67
2021/04/11 12:08:32;;;;;;;2.88;1.65;;;;;;;;;;5109435;28;20047;-67
2021/04/11 12:11:14;;;;;;;3.63;1.88;;;;;;;;;;5109126;28;20020;-67
2021/04/11 12:13:41;;;;;;;4.10;2.00;;;;;;;;;;5107613;28;20028;-67
2021/04/11 12:16:07;;;;;;;8.18;2.00;;;;;;;;;;5109218;28;20016;-66
2021/04/11 12:18:52;;;;;;;3.35;1.55;;;;;;;;;;5109114;28;20421;-67
2021/04/11 12:21:22;;;;;;;6.82;2.08;;;;;;;;;;5108790;28;20028;-67
2021/04/11 12:23:56;;;;;;;3.45;1.55;;;;;;;;;;5099688;28;20106;-67
2021/04/11 12:26:24;;;;;;;4.20;1.60;;;;;;;;;;5095097;28;20107;-68
2021/04/11 12:28:51;;;;;;;2.28;1.10;;;;;;;;;;5095400;28;20024;-67
2021/04/11 12:31:24;;;;;;;3.30;1.38;;;;;;;;;;5095389;28;20024;-67
2021/04/11 12:33:50;;;;;;;2.28;1.40;;;;;;;;;;5095289;28;20499;-67
2021/04/11 12:36:28;;;;;;;4.03;1.58;;;;;;;;;;5094035;28;20392;-67
2021/04/11 12:38:56;;;;;;;3.63;1.40;;;;;;;;;;5095213;28;20080;-67
2021/04/11 12:41:44;;;;;;;3.22;1.50;;;;;;;;;;5093463;28;20027;-67
2021/04/11 12:44:27;;;;;;;4.00;1.20;;;;;;;;;;5094979;28;20030;-67
2021/04/11 12:47:05;;;;;;;3.95;1.23;;;;;;;;;;5095150;28;20400;-67
2021/04/11 12:49:44;;;;;;;3.60;1.50;;;;;;;;;;5093620;28;20051;-68
2021/04/11 12:52:15;;;;;;;3.10;1.40;;;;;;;;;;5094958;28;20097;-67
2021/04/11 12:54:46;;;;;;;3.85;1.20;;;;;;;;;;5094852;28;20021;-67
2021/04/11 12:57:21;;;;;;;3.72;1.20;;;;;;;;;;5094839;28;20491;-69
2021/04/11 12:59:56;;;;;;;5.65;1.40;;;;;;;;;;5094780;28;20060;-68
2021/04/11 13:02:30;;;;;;;4.32;1.60;;;;;;;;;;5093021;28;20017;-67
2021/04/11 13:05:04;;;;;;;4.50;1.80;;;;;;;;;;5093433;28;20397;-67
2021/04/11 13:07:31;;;;;;;2.67;1.30;;;;;;;;;;5094708;28;20031;-67
2021/04/11 13:10:14;;;;;;;3.65;1.40;;;;;;;;;;5094471;28;20032;-67
2021/04/11 13:12:53;;;;;;;3.97;1.38;;;;;;;;;;5094444;28;20400;-67
2021/04/11 13:15:28;;;;;;;3.13;1.35;;;;;;;;;;5093984;28;20024;-67
2021/04/11 13:18:02;;;;;;;3.22;1.67;;;;;;;;;;5094435;28;20024;-67
2021/04/11 13:20:34;;;;;;;2.88;1.40;;;;;;;;;;5093056;28;20029;-67
2021/04/11 13:23:18;;;;;;;43.08;21.48;;;;;;;;;;5093851;28;20027;-67
2021/04/11 13:25:49;;;;;;;7.88;2.85;;;;;;;;;;5094049;28;20073;-67
2021/04/11 13:28:19;;;;;;;5.55;2.50;;;;;;;;;;5094325;28;20020;-67
2021/04/11 13:30:48;;;;;;;4.15;1.48;;;;;;;;;;5093931;28;20384;-67
2021/04/11 13:33:18;;;;;;;4.20;2.40;;;;;;;;;;5092953;28;20032;-67
2021/04/11 13:35:52;;;;;;;3.25;1.75;;;;;;;;;;5093269;28;20070;-67
2021/04/11 13:38:22;;;;;;;6.13;3.00;;;;;;;;;;5093924;28;20420;-67
2021/04/11 13:40:49;;;;;;;4.22;2.15;;;;;;;;;;5094051;28;20380;-67
2021/04/11 13:43:20;;;;;;;3.63;1.23;;;;;;;;;;5093969;28;20132;-67
2021/04/11 13:45:54;;;;;;;7.70;2.53;;;;;;;;;;5092131;28;20032;-67
2021/04/11 13:48:24;;;;;;;2.10;1.02;;;;;;;;;;5093884;28;20107;-67
2021/04/11 13:50:56;;;;;;;5.20;1.42;;;;;;;;;;5092183;28;20070;-68
2021/04/11 13:53:22;;;;;;;;;;;;;;;;;;5094183;28;20084;-67
2021/04/11 13:56:00;;;;;;;2.28;1.05;;;;;;;;;;5093716;28;19983;-67
2021/04/11 13:58:48;;;;;;;3.60;1.80;;;;;;;;;;5093270;28;20126;-68
2021/04/11 14:01:17;;;;;;;2.22;1.27;;;;;;;;;;5093615;28;20078;-67
2021/04/11 14:03:55;;;;;;;3.60;1.25;;;;;;;;;;5093404;28;20020;-67
2021/04/11 14:06:31;;;;;;;3.08;1.52;;;;;;;;;;5093007;28;20540;-67
2021/04/11 14:08:57;;;;;;;1.85;0.98;;;;;;;;;;5093400;28;20095;-67
2021/04/11 14:11:35;;;;;;;3.33;1.15;;;;;;;;;;5093313;28;20048;-67
2021/04/11 14:14:22;;;;;;;3.72;1.42;;;;;;;;;;5093415;28;20020;-67
2021/04/11 14:16:56;;;;;;;1.98;0.88;;;;;;;;;;5093383;28;20024;-67
2021/04/11 14:19:34;;;;;;;3.08;1.60;;;;;;;;;;5092849;28;20016;-67
2021/04/11 14:22:21;;;;;;;5.10;1.80;;;;;;;;;;5093136;28;20034;-67
2021/04/11 14:24:51;;;;;;;4.95;1.98;;;;;;;;;;5092852;28;20490;-67
2021/04/11 14:27:20;;;;;;;3.08;1.35;;;;;;;;;;5091204;28;20029;-67
2021/04/11 14:30:25;;;;;;;3.60;1.17;;;;;;;;;;5093006;28;20099;-68
2021/04/11 14:32:54;;;;;;;4.03;1.50;;;;;;;;;;5013712;28;20037;-68
2021/04/11 14:35:22;;;;;;;3.20;1.38;;;;;;;;;;5013955;28;20031;-67
2021/04/11 14:37:52;;;;;;;1.70;0.93;;;;;;;;;;5052033;28;20028;-68
2021/04/11 14:40:25;;;;;;;4.32;1.58;;;;;;;;;;5092450;28;20028;-68
2021/04/11 14:42:54;;;;;;;1.73;0.95;;;;;;;;;;5091565;28;20026;-67
2021/04/11 14:45:28;;;;;;;5.00;2.13;;;;;;;;;;5091367;28;20028;-68
2021/04/11 14:47:56;;;;;;;4.05;1.73;;;;;;;;;;5092359;28;20028;-68
2021/04/11 14:50:33;;;;;;;4.47;1.80;;;;;;;;;;5092807;28;20035;-67
2021/04/11 14:53:20;;;;;;;5.03;1.50;;;;;;;;;;5092895;28;20057;-67
2021/04/11 14:55:49;;;;;;;2.55;1.25;;;;;;;;;;5090931;28;20024;-67
2021/04/11 14:58:27;;;;;;;3.38;1.10;;;;;;;;;;5092684;28;20403;-67
2021/04/11 15:01:05;;;;;;;2.60;1.27;;;;;;;;;;5092304;28;20028;-67
2021/04/11 15:03:46;;;;;;;7.93;2.28;;;;;;;;;;5092870;28;20099;-68
2021/04/11 15:06:31;;;;;;;2.95;1.20;;;;;;;;;;5092692;28;20544;-67
2021/04/11 15:09:15;;;;;;;2.35;1.30;;;;;;;;;;5092251;28;20024;-67
2021/04/11 15:11:47;;;;;;;3.13;1.25;;;;;;;;;;5092371;28;20064;-67
2021/04/11 15:14:13;;;;;;;3.08;1.75;;;;;;;;;;5092537;28;20028;-67
2021/04/11 15:16:45;;;;;;;3.90;1.30;;;;;;;;;;5092096;28;20050;-67
2021/04/11 15:19:14;;;;;;;4.88;1.63;;;;;;;;;;5092531;28;20086;-67
2021/04/11 15:21:49;;;;;;;7.28;1.63;;;;;;;;;;5091112;28;20024;-67
2021/04/11 15:24:23;;;;;;;3.25;1.00;;;;;;;;;;5092368;28;20024;-67
2021/04/11 15:27:01;;;;;;;5.45;1.63;;;;;;;;;;5090925;28;20111;-67
2021/04/11 15:29:47;;;;;;;4.82;1.70;;;;;;;;;;5091865;28;20024;-67
2021/04/11 15:32:23;;;;;;;7.93;4.63;;;;;;;;;;5092259;28;20039;-67
2021/04/11 15:34:50;;;;;;;6.32;3.10;;;;;;;;;;5092337;28;20031;-67
2021/04/11 15:37:39;;;;;;;5.35;2.17;;;;;;;;;;5091568;28;20044;-67